KDUG/DUG METAR and TAF weather

Enter ICAO airport designator
Station Type Date Time Source
KDUG METAR 2019/04/26 02:56 UTC NOAA

KDUG 260256Z AUTO 13003KT 10SM CLR 24/M03 A3004 RMK AO2 SLP114 T02391033 53007


Station Type Date Time Source
KDUG Decoded METAR 2019/04/26 02:56 UTC NOAA

BISBEE DOUGLAS INTERNATIONAL AIRPORT , AZ, United States (KDUG) 31-28N 109-36W
Apr 25, 2019 - 10:56 PM EDT / 2019.04.26 0256 UTC
Wind: from the SE (130 degrees) at 3 MPH (3 KT):0
Visibility: 10 mile(s):0
Sky conditions: clear
Temperature: 75.0 F (23.9 C)
Dew Point: 26.1 F (-3.3 C)
Relative Humidity: 16%
Pressure (altimeter): 30.04 in. Hg (1017 hPa)
Pressure tendency: 0.02 inches (0.7 hPa) higher than three hours ago
ob: KDUG 260256Z AUTO 13003KT 10SM CLR 24/M03 A3004 RMK AO2 SLP114 T02391033 53007
cycle: 3

Station Type Date Time Source
KDUG TAF 2019/04/25 18:42 UTC NOAA

TAF KDUG 251740Z 2518/2618 32008KT P6SM SKC
FM260300 36007KT P6SM SKC
FM261100 VRB04KT P6SM SKC

Example: see airport list